Ciudad Guayana, Venezuela
Current Conditions -  °F | °C
As of 6:00 PM on Sunday 23 Nov 2014 (Local Time) from TTPP Reporting Station
Few Clouds Few Clouds  
Wind Chill: 81°   Ceiling: Unl
Heat Index: 86°   Visibility: 6mi
Dew Point: 75°   Wind: 9mph
Humidity: 84%   Direction: 60°ENE
Pressure: 29.85"   Gusts: NA
Location:  8.37°N, 62.62°W
Report Text: TTPP 232200Z 06008KT 9999 FEW018 27/24 Q1011 NOSIG RMK JP-SE
Loading
Personal Weather Stations






























Interactive Weather Map New forecast layout! Learn more

10-Day Weather Forecast

Advertisements
Track Severe Weather on mobile